< Cyclone 197710 1977 Season Cyclone 197712 >
Cyclone 197711 (OTTO)
General InformationTrack Information on Google Maps || ResourceGoogle EarthGE AnimationAtom FeedGeoJSON
Detalied Best Track (Time Zone = UTC)
Year Month Day Hour Lat. Long. Pressure (hPa) Wind (kt) Class Image Chart
1977 3 6 17 -13.9 140.1 989 0 0 -- --
1977 3 6 23 -13.1 140.3 990 0 0 -- --
1977 3 7 02 -12.8 140.6 988 0 0 -- --
1977 3 7 05 -12.6 141.0 984 0 0 -- --
1977 3 7 08 -12.7 141.5 986 0 0 -- --
1977 3 7 11 -13.1 142.0 988 0 0 -- --
1977 3 7 17 -14.0 143.0 988 0 0 -- --
1977 3 7 23 -14.9 143.7 988 0 0 -- --
1977 3 8 05 -15.7 144.2 988 0 0 -- --
1977 3 8 08 -15.9 144.6 988 0 0 -- --
1977 3 8 11 -16.0 144.9 988 0 0 -- --
1977 3 8 17 -16.2 145.8 987 0 0 -- --
1977 3 8 20 -16.5 146.2 988 0 0 -- --
1977 3 8 23 -18.4 147.8 987 0 0 -- --
1977 3 9 02 -18.8 147.6 987 0 0 -- --
1977 3 9 05 -19.2 147.7 987 0 0 -- --
1977 3 9 08 -19.6 148.0 988 0 0 -- --
1977 3 9 11 -20.1 148.1 989 0 0 -- --
1977 3 9 17 -21.1 148.0 990 0 0 -- --
1977 3 9 23 -21.7 147.2 994 0 0 -- --
1977 3 10 02 -22.1 146.3 995 0 0 -- --
< Cyclone 197710 1977 Season Cyclone 197712 >

Help